createdAt,value
2018-04-24T00:00:35.211Z,63.80
2018-04-24T00:04:38.489Z,63.50
2018-04-24T00:08:41.020Z,63.80
2018-04-24T00:12:43.548Z,65.00
2018-04-24T00:16:46.086Z,64.90
2018-04-24T00:20:48.630Z,63.00
2018-04-24T00:24:51.150Z,63.40
2018-04-24T00:28:53.719Z,63.00
2018-04-24T00:32:57.018Z,63.70
2018-04-24T00:37:00.315Z,64.40
2018-04-24T00:41:02.855Z,64.30
2018-04-24T00:45:05.359Z,63.40
2018-04-24T00:49:07.886Z,63.50
2018-04-24T00:53:23.006Z,67.90
2018-04-24T00:57:26.315Z,73.20
2018-04-24T01:01:28.845Z,72.70
2018-04-24T01:05:32.135Z,66.70
2018-04-24T01:09:34.646Z,66.70
2018-04-24T01:13:37.183Z,65.30
2018-04-24T01:17:39.737Z,64.20
2018-04-24T01:21:42.288Z,66.60
2018-04-24T01:25:45.582Z,70.70
2018-04-24T01:29:48.104Z,71.00
2018-04-24T01:33:50.635Z,69.20
2018-04-24T01:37:53.165Z,69.40
2018-04-24T01:41:56.422Z,65.90
2018-04-24T01:45:58.956Z,65.60
2018-04-24T01:50:01.488Z,71.20
2018-04-24T01:54:04.004Z,64.30
2018-04-24T01:58:07.299Z,69.30
2018-04-24T02:02:10.602Z,64.50
2018-04-24T02:06:13.908Z,66.50
2018-04-24T02:10:16.442Z,66.30
2018-04-24T02:14:18.959Z,67.70
2018-04-24T02:18:21.499Z,63.90
2018-04-24T02:22:24.031Z,66.40
2018-04-24T02:26:26.596Z,72.10
2018-04-24T02:30:29.128Z,68.10
2018-04-24T02:34:31.640Z,68.00
2018-04-24T02:38:34.180Z,70.10
2018-04-24T02:42:36.715Z,65.90
2018-04-24T02:46:39.255Z,64.60
2018-04-24T02:50:42.557Z,69.50
2018-04-24T02:54:45.828Z,68.30
2018-04-24T02:58:48.362Z,68.40
2018-04-24T03:02:50.886Z,66.40
2018-04-24T03:06:53.464Z,65.40
2018-04-24T03:10:55.996Z,66.40
2018-04-24T03:14:59.275Z,70.20
2018-04-24T03:19:01.824Z,70.60
2018-04-24T03:23:04.363Z,66.90
2018-04-24T03:27:07.671Z,70.10
2018-04-24T03:31:10.977Z,71.50
2018-04-24T03:35:13.511Z,71.40
2018-04-24T03:39:16.052Z,67.40
2018-04-24T03:43:19.348Z,69.20
2018-04-24T03:47:22.651Z,69.80
2018-04-24T03:51:25.969Z,70.40
2018-04-24T03:55:28.486Z,70.90
2018-04-24T03:59:31.029Z,71.90
2018-04-24T04:03:34.329Z,68.20
2018-04-24T04:07:36.987Z,68.10
2018-04-24T04:11:40.194Z,72.80
2018-04-24T04:15:42.737Z,71.60
2018-04-24T04:19:57.136Z,73.90
2018-04-24T04:24:11.491Z,69.40
2018-04-24T04:28:14.869Z,69.90
2018-04-24T04:32:17.611Z,72.30
2018-04-24T04:36:20.896Z,71.70
2018-04-24T04:40:23.436Z,71.20
2018-04-24T04:44:25.971Z,74.10
2018-04-24T04:48:28.511Z,72.40
2018-04-24T04:52:31.023Z,76.10
2018-04-24T04:56:33.555Z,75.30
2018-04-24T05:00:36.867Z,74.80
2018-04-24T05:04:39.414Z,74.60
2018-04-24T05:08:41.948Z,75.00
2018-04-24T05:12:44.502Z,74.80
2018-04-24T05:16:47.795Z,73.60
2018-04-24T05:20:50.336Z,73.40
2018-04-24T05:24:52.867Z,74.60
2018-04-24T05:28:55.403Z,74.40
2018-04-24T05:32:57.935Z,72.30
2018-04-24T05:37:00.480Z,74.20
2018-04-24T05:41:03.013Z,75.30
2018-04-24T05:45:06.322Z,74.40
2018-04-24T05:49:08.919Z,74.30
2018-04-24T05:53:11.423Z,74.40
2018-04-24T05:57:13.955Z,73.60
2018-04-24T06:01:16.490Z,75.40
2018-04-24T06:05:19.022Z,74.10
2018-04-24T06:09:21.535Z,74.50
2018-04-24T06:13:24.064Z,76.20
2018-04-24T06:17:26.600Z,76.10
2018-04-24T06:21:29.128Z,76.90
2018-04-24T06:25:31.658Z,75.90
2018-04-24T06:29:34.940Z,75.70
2018-04-24T06:33:37.469Z,75.70
2018-04-24T06:37:40.015Z,73.70
2018-04-24T06:41:42.568Z,74.60
2018-04-24T06:45:45.100Z,76.20
2018-04-24T06:49:48.383Z,75.10
2018-04-24T06:53:50.919Z,75.00
2018-04-24T06:57:53.462Z,76.40
2018-04-24T07:01:55.991Z,76.90
2018-04-24T07:05:58.527Z,73.80
2018-04-24T07:10:01.823Z,75.70
2018-04-24T07:14:04.371Z,75.70
2018-04-24T07:18:06.902Z,73.50
2018-04-24T07:22:09.456Z,76.00
2018-04-24T07:26:11.988Z,76.20
2018-04-24T07:30:15.276Z,75.30
2018-04-24T07:34:17.807Z,75.50
2018-04-24T07:38:20.343Z,75.50
2018-04-24T07:42:22.884Z,77.10
2018-04-24T07:46:25.402Z,76.20
2018-04-24T07:50:27.951Z,76.80
2018-04-24T07:54:30.487Z,76.90
2018-04-24T07:58:33.024Z,76.70
2018-04-24T08:02:35.567Z,76.40
2018-04-24T08:06:38.859Z,76.90
2018-04-24T08:10:41.395Z,77.00
2018-04-24T08:14:43.926Z,77.00
2018-04-24T08:18:46.465Z,76.70
2018-04-24T08:22:49.662Z,77.20
2018-04-24T08:26:52.184Z,75.50
2018-04-24T08:30:54.758Z,76.80
2018-04-24T08:34:57.292Z,76.50
2018-04-24T08:39:00.710Z,77.70
2018-04-24T08:43:03.156Z,77.50
2018-04-24T08:47:05.667Z,77.10
2018-04-24T08:51:08.211Z,77.30
2018-04-24T08:55:10.761Z,78.30
2018-04-24T08:59:13.294Z,78.00
2018-04-24T09:03:15.827Z,78.50
2018-04-24T09:07:18.339Z,79.00
2018-04-24T09:11:20.891Z,80.40
2018-04-24T09:15:23.431Z,77.50
2018-04-24T09:19:26.312Z,80.10
2018-04-24T09:23:28.847Z,78.30
2018-04-24T09:27:31.367Z,79.40
2018-04-24T09:31:39.543Z,79.50
2018-04-24T09:35:42.088Z,78.80
2018-04-24T09:39:44.620Z,78.30
2018-04-24T09:43:47.162Z,79.60
2018-04-24T09:47:49.687Z,76.70
2018-04-24T09:51:52.222Z,79.10
2018-04-24T09:55:54.768Z,80.20
2018-04-24T09:59:57.303Z,80.60
2018-04-24T10:04:00.614Z,80.40
2018-04-24T10:08:03.905Z,80.60
2018-04-24T10:12:06.442Z,80.50
2018-04-24T10:16:08.976Z,80.30
2018-04-24T10:20:11.515Z,78.70
2018-04-24T10:24:14.055Z,81.30
2018-04-24T10:28:16.730Z,79.70
2018-04-24T10:32:19.271Z,78.90
2018-04-24T10:36:21.815Z,79.30
2018-04-24T10:40:25.118Z,80.30
2018-04-24T10:44:28.421Z,78.30
2018-04-24T10:48:31.702Z,76.60
2018-04-24T10:52:34.239Z,76.90
2018-04-24T10:56:36.814Z,79.90
2018-04-24T11:00:39.372Z,77.80
2018-04-24T11:04:41.902Z,78.50
2018-04-24T11:08:44.424Z,76.90
2018-04-24T11:12:46.966Z,78.60
2018-04-24T11:16:49.509Z,79.80
2018-04-24T11:20:52.051Z,78.70
2018-04-24T11:24:54.583Z,77.90
2018-04-24T11:28:57.881Z,78.30
2018-04-24T11:33:00.415Z,78.00
2018-04-24T11:37:02.958Z,78.20
2018-04-24T11:41:06.284Z,77.20
2018-04-24T11:45:08.828Z,77.20
2018-04-24T11:49:11.359Z,77.10
2018-04-24T11:53:13.892Z,77.00
2018-04-24T11:57:16.428Z,76.30
2018-04-24T12:01:18.963Z,77.00
2018-04-24T12:05:21.496Z,77.10
2018-04-24T12:09:24.016Z,76.90
2018-04-24T12:13:26.557Z,76.60
2018-04-24T12:17:29.863Z,77.40
2018-04-24T12:21:32.406Z,77.20
2018-04-24T12:25:34.941Z,78.20
2018-04-24T12:29:37.457Z,77.00
2018-04-24T12:33:39.993Z,76.90
2018-04-24T12:37:43.291Z,76.90
2018-04-24T12:41:46.591Z,76.90
2018-04-24T12:45:49.896Z,76.00
2018-04-24T12:49:53.180Z,76.90
2018-04-24T12:53:55.726Z,76.80
2018-04-24T12:57:58.259Z,76.30
2018-04-24T13:02:00.794Z,76.60
2018-04-24T13:06:03.327Z,75.50
2018-04-24T13:10:05.842Z,77.10
2018-04-24T13:14:08.383Z,75.80
2018-04-24T13:18:10.923Z,75.10
2018-04-24T13:22:13.455Z,75.20
2018-04-24T13:26:16.000Z,75.60
2018-04-24T13:30:18.515Z,75.50
2018-04-24T13:34:21.047Z,75.00
2018-04-24T13:38:23.591Z,73.70
2018-04-24T13:42:26.126Z,73.90
2018-04-24T13:46:28.667Z,74.60
2018-04-24T13:50:31.204Z,75.00
2018-04-24T13:54:33.735Z,75.80
2018-04-24T13:58:36.333Z,74.50
2018-04-24T14:02:38.862Z,75.60
2018-04-24T14:06:41.396Z,75.40
2018-04-24T14:10:43.954Z,75.70
2018-04-24T14:14:46.491Z,75.20
2018-04-24T14:18:49.796Z,75.50
2018-04-24T14:22:52.331Z,75.40
2018-04-24T14:26:54.873Z,75.10
2018-04-24T14:30:57.419Z,75.10
2018-04-24T14:34:59.967Z,75.60
2018-04-24T14:39:02.508Z,74.50
2018-04-24T14:43:05.811Z,75.10
2018-04-24T14:47:08.366Z,75.10
2018-04-24T14:51:10.912Z,76.00
2018-04-24T14:55:13.428Z,75.80
2018-04-24T14:59:15.971Z,75.70
2018-04-24T15:03:18.516Z,76.10
2018-04-24T15:07:21.048Z,76.90
2018-04-24T15:11:23.583Z,76.90
2018-04-24T15:15:26.431Z,76.90
2018-04-24T15:19:29.331Z,76.10
2018-04-24T15:23:31.883Z,76.20
2018-04-24T15:27:35.241Z,75.40
2018-04-24T15:31:38.476Z,75.90
2018-04-24T15:35:41.764Z,75.30
2018-04-24T15:39:44.304Z,75.40
2018-04-24T15:43:46.835Z,76.30
2018-04-24T15:47:49.373Z,75.60
2018-04-24T15:51:51.903Z,76.00
2018-04-24T15:55:54.416Z,75.60
2018-04-24T15:59:56.954Z,75.00
2018-04-24T16:03:59.515Z,75.30
2018-04-24T16:08:02.071Z,76.20
2018-04-24T16:12:04.606Z,75.70
2018-04-24T16:16:07.124Z,75.60
2018-04-24T16:20:09.664Z,75.50
2018-04-24T16:24:12.528Z,74.60
2018-04-24T16:28:15.012Z,75.60
2018-04-24T16:32:17.543Z,74.70
2018-04-24T16:36:20.060Z,74.70
2018-04-24T16:40:23.360Z,74.40
2018-04-24T16:44:26.688Z,74.40
2018-04-24T16:48:29.222Z,74.50
2018-04-24T16:52:31.760Z,74.80
2018-04-24T16:56:34.275Z,74.10
2018-04-24T17:00:36.880Z,74.20
2018-04-24T17:04:39.375Z,74.80
2018-04-24T17:08:41.915Z,74.90
2018-04-24T17:12:44.452Z,73.80
2018-04-24T17:16:47.743Z,74.10
2018-04-24T17:20:50.284Z,74.10
2018-04-24T17:24:52.831Z,73.90
2018-04-24T17:28:56.203Z,74.80
2018-04-24T17:32:58.750Z,74.60
2018-04-24T17:37:01.262Z,74.10
2018-04-24T17:41:03.802Z,74.00
2018-04-24T17:45:06.351Z,74.30
2018-04-24T17:49:08.886Z,74.30
2018-04-24T17:53:11.434Z,74.50
2018-04-24T17:57:14.033Z,74.60
2018-04-24T18:01:16.528Z,73.40
2018-04-24T18:05:19.075Z,73.40
2018-04-24T18:09:21.747Z,74.10
2018-04-24T18:13:24.288Z,74.50
2018-04-24T18:17:26.833Z,75.40
2018-04-24T18:21:29.399Z,73.90
2018-04-24T18:25:31.912Z,74.30
2018-04-24T18:29:34.451Z,75.40
2018-04-24T18:33:36.991Z,74.60
2018-04-24T18:37:42.964Z,73.40
2018-04-24T18:41:46.384Z,73.20
2018-04-24T18:45:48.907Z,73.20
2018-04-24T18:49:51.447Z,75.60
2018-04-24T18:53:54.753Z,73.90
2018-04-24T18:57:57.287Z,73.90
2018-04-24T19:01:59.855Z,73.90
2018-04-24T19:06:03.141Z,75.00
2018-04-24T19:10:05.691Z,73.80
2018-04-24T19:14:14.614Z,73.50
2018-04-24T19:18:17.147Z,73.50
2018-04-24T19:22:19.692Z,73.70
2018-04-24T19:26:22.991Z,72.70
2018-04-24T19:30:25.514Z,72.60
2018-04-24T19:34:28.077Z,75.00
2018-04-24T19:38:31.380Z,73.20
2018-04-24T19:42:34.696Z,72.70
2018-04-24T19:46:37.229Z,72.70
2018-04-24T19:50:39.758Z,73.00
2018-04-24T19:54:48.736Z,72.90
2018-04-24T19:58:51.267Z,72.90
2018-04-24T20:02:54.651Z,72.30
2018-04-24T20:06:58.564Z,74.60
2018-04-24T20:11:01.192Z,72.70
2018-04-24T20:15:03.878Z,72.50
2018-04-24T20:19:06.491Z,72.50
2018-04-24T20:23:09.112Z,73.50
2018-04-24T20:27:11.743Z,75.20
2018-04-24T20:31:19.127Z,72.40
2018-04-24T20:35:21.768Z,72.40
2018-04-24T20:39:24.311Z,72.20
2018-04-24T20:43:26.851Z,72.60
2018-04-24T20:47:29.436Z,72.30
2018-04-24T20:51:31.963Z,73.80
2018-04-24T20:55:35.271Z,72.70
2018-04-24T20:59:37.816Z,72.70
2018-04-24T21:03:41.007Z,72.60
2018-04-24T21:07:43.637Z,73.50
2018-04-24T21:11:46.919Z,71.90
2018-04-24T21:15:50.216Z,71.90
2018-04-24T21:19:52.826Z,72.20
2018-04-24T21:23:56.136Z,72.30
2018-04-24T21:27:58.679Z,72.20
2018-04-24T21:32:01.194Z,72.70
2018-04-24T21:36:03.736Z,74.60
2018-04-24T21:40:06.954Z,73.90
2018-04-24T21:44:09.512Z,76.80
2018-04-24T21:48:12.055Z,72.80
2018-04-24T21:52:14.796Z,73.50
2018-04-24T21:56:17.490Z,73.00
2018-04-24T22:00:21.513Z,73.40
2018-04-24T22:04:24.066Z,73.40
2018-04-24T22:08:26.607Z,72.60
2018-04-24T22:12:29.925Z,74.20
2018-04-24T22:16:33.205Z,74.90
2018-04-24T22:20:35.765Z,74.80
2018-04-24T22:24:38.300Z,73.20
2018-04-24T22:28:41.604Z,73.00
2018-04-24T22:32:44.915Z,72.70
2018-04-24T22:36:47.428Z,72.50
2018-04-24T22:40:49.962Z,72.20
2018-04-24T22:44:52.508Z,75.60
2018-04-24T22:48:55.083Z,72.60
2018-04-24T22:52:57.623Z,72.60
2018-04-24T22:57:00.904Z,73.60
2018-04-24T23:01:03.441Z,73.60
2018-04-24T23:05:05.983Z,76.10
2018-04-24T23:09:08.523Z,74.70
2018-04-24T23:13:23.027Z,77.60
2018-04-24T23:17:38.061Z,73.80
2018-04-24T23:21:40.099Z,73.00
2018-04-24T23:25:43.407Z,79.70
2018-04-24T23:33:56.347Z,76.20
2018-04-24T23:37:58.864Z,76.00
2018-04-24T23:42:01.401Z,78.10
2018-04-24T23:46:03.946Z,80.50
2018-04-24T23:50:06.495Z,77.20
2018-04-24T23:54:09.798Z,79.10
2018-04-24T23:58:13.090Z,74.90
